sensor_id;sensor_type;location;lat;lon;timestamp;P1;durP1;ratioP1;P2;durP2;ratioP2
53036;SDS011;38924;52.134;4.666;2023-04-24T00:02:15;5.75;;;2.08;;
53036;SDS011;38924;52.134;4.666;2023-04-24T00:04:41;5.60;;;2.17;;
53036;SDS011;38924;52.134;4.666;2023-04-24T00:07:10;5.70;;;2.20;;
53036;SDS011;38924;52.134;4.666;2023-04-24T00:09:36;8.27;;;2.72;;
53036;SDS011;38924;52.134;4.666;2023-04-24T00:12:01;9.13;;;2.33;;
53036;SDS011;38924;52.134;4.666;2023-04-24T00:14:30;4.80;;;2.65;;
53036;SDS011;38924;52.134;4.666;2023-04-24T00:16:56;3.83;;;2.47;;
53036;SDS011;38924;52.134;4.666;2023-04-24T00:19:21;7.15;;;2.20;;
53036;SDS011;38924;52.134;4.666;2023-04-24T00:21:47;4.80;;;2.53;;
53036;SDS011;38924;52.134;4.666;2023-04-24T00:24:15;4.60;;;2.47;;
53036;SDS011;38924;52.134;4.666;2023-04-24T00:26:41;4.75;;;2.35;;
53036;SDS011;38924;52.134;4.666;2023-04-24T00:29:07;3.97;;;3.00;;
53036;SDS011;38924;52.134;4.666;2023-04-24T00:31:33;4.13;;;2.53;;
53036;SDS011;38924;52.134;4.666;2023-04-24T00:34:00;3.85;;;2.60;;
53036;SDS011;38924;52.134;4.666;2023-04-24T00:36:26;8.32;;;2.55;;
53036;SDS011;38924;52.134;4.666;2023-04-24T00:38:52;4.40;;;2.60;;
53036;SDS011;38924;52.134;4.666;2023-04-24T00:41:21;5.13;;;3.38;;
53036;SDS011;38924;52.134;4.666;2023-04-24T00:43:50;2.53;;;2.33;;
53036;SDS011;38924;52.134;4.666;2023-04-24T00:46:16;3.47;;;2.28;;
53036;SDS011;38924;52.134;4.666;2023-04-24T00:48:42;22.58;;;5.32;;
53036;SDS011;38924;52.134;4.666;2023-04-24T00:51:08;3.72;;;2.38;;
53036;SDS011;38924;52.134;4.666;2023-04-24T00:53:34;4.57;;;2.25;;
53036;SDS011;38924;52.134;4.666;2023-04-24T00:56:00;6.65;;;2.35;;
53036;SDS011;38924;52.134;4.666;2023-04-24T00:58:25;6.55;;;3.03;;
53036;SDS011;38924;52.134;4.666;2023-04-24T01:00:52;5.25;;;3.05;;
53036;SDS011;38924;52.134;4.666;2023-04-24T01:03:24;6.30;;;3.05;;
53036;SDS011;38924;52.134;4.666;2023-04-24T01:05:52;11.18;;;3.20;;
53036;SDS011;38924;52.134;4.666;2023-04-24T01:08:18;5.15;;;3.38;;
53036;SDS011;38924;52.134;4.666;2023-04-24T01:10:44;5.15;;;3.33;;
53036;SDS011;38924;52.134;4.666;2023-04-24T01:13:11;6.53;;;3.65;;
53036;SDS011;38924;52.134;4.666;2023-04-24T01:15:37;4.65;;;2.83;;
53036;SDS011;38924;52.134;4.666;2023-04-24T01:18:02;3.15;;;2.65;;
53036;SDS011;38924;52.134;4.666;2023-04-24T01:20:28;5.43;;;3.15;;
53036;SDS011;38924;52.134;4.666;2023-04-24T01:22:56;3.75;;;2.70;;
53036;SDS011;38924;52.134;4.666;2023-04-24T01:25:25;5.70;;;2.63;;
53036;SDS011;38924;52.134;4.666;2023-04-24T01:27:51;5.30;;;2.88;;
53036;SDS011;38924;52.134;4.666;2023-04-24T01:30:18;7.65;;;3.15;;
53036;SDS011;38924;52.134;4.666;2023-04-24T01:32:43;7.13;;;2.92;;
53036;SDS011;38924;52.134;4.666;2023-04-24T01:35:10;4.10;;;2.60;;
53036;SDS011;38924;52.134;4.666;2023-04-24T01:37:35;2.97;;;2.78;;
53036;SDS011;38924;52.134;4.666;2023-04-24T01:40:05;8.27;;;3.20;;
53036;SDS011;38924;52.134;4.666;2023-04-24T01:42:32;3.08;;;2.72;;
53036;SDS011;38924;52.134;4.666;2023-04-24T01:44:57;6.13;;;3.10;;
53036;SDS011;38924;52.134;4.666;2023-04-24T01:47:23;5.40;;;3.60;;
53036;SDS011;38924;52.134;4.666;2023-04-24T01:49:50;4.85;;;3.60;;
53036;SDS011;38924;52.134;4.666;2023-04-24T01:52:17;4.95;;;3.30;;
53036;SDS011;38924;52.134;4.666;2023-04-24T01:54:44;6.00;;;4.20;;
53036;SDS011;38924;52.134;4.666;2023-04-24T01:57:09;5.35;;;3.63;;
53036;SDS011;38924;52.134;4.666;2023-04-24T01:59:35;9.75;;;3.92;;
53036;SDS011;38924;52.134;4.666;2023-04-24T02:02:02;6.10;;;3.72;;
53036;SDS011;38924;52.134;4.666;2023-04-24T02:04:27;5.90;;;3.60;;
53036;SDS011;38924;52.134;4.666;2023-04-24T02:06:53;9.45;;;3.97;;
53036;SDS011;38924;52.134;4.666;2023-04-24T02:09:19;8.55;;;3.65;;
53036;SDS011;38924;52.134;4.666;2023-04-24T02:11:45;7.85;;;4.03;;
53036;SDS011;38924;52.134;4.666;2023-04-24T02:14:10;7.25;;;4.20;;
53036;SDS011;38924;52.134;4.666;2023-04-24T02:16:39;7.85;;;4.18;;
53036;SDS011;38924;52.134;4.666;2023-04-24T02:19:04;4.60;;;3.60;;
53036;SDS011;38924;52.134;4.666;2023-04-24T02:21:30;4.50;;;4.10;;
53036;SDS011;38924;52.134;4.666;2023-04-24T02:23:58;7.05;;;3.90;;
53036;SDS011;38924;52.134;4.666;2023-04-24T02:26:24;6.68;;;4.28;;
53036;SDS011;38924;52.134;4.666;2023-04-24T02:28:51;5.93;;;4.40;;
53036;SDS011;38924;52.134;4.666;2023-04-24T02:31:18;5.63;;;3.88;;
53036;SDS011;38924;52.134;4.666;2023-04-24T02:33:44;4.35;;;3.83;;
53036;SDS011;38924;52.134;4.666;2023-04-24T02:36:09;7.88;;;4.32;;
53036;SDS011;38924;52.134;4.666;2023-04-24T02:38:35;6.95;;;4.03;;
53036;SDS011;38924;52.134;4.666;2023-04-24T02:41:01;7.75;;;4.57;;
53036;SDS011;38924;52.134;4.666;2023-04-24T02:43:27;6.40;;;4.50;;
53036;SDS011;38924;52.134;4.666;2023-04-24T02:45:53;4.55;;;4.15;;
53036;SDS011;38924;52.134;4.666;2023-04-24T02:48:21;5.57;;;4.63;;
53036;SDS011;38924;52.134;4.666;2023-04-24T02:50:47;8.40;;;4.55;;
53036;SDS011;38924;52.134;4.666;2023-04-24T02:53:13;7.80;;;4.72;;
53036;SDS011;38924;52.134;4.666;2023-04-24T02:55:39;7.90;;;4.32;;
53036;SDS011;38924;52.134;4.666;2023-04-24T02:58:04;7.68;;;4.45;;
53036;SDS011;38924;52.134;4.666;2023-04-24T03:00:31;5.82;;;4.22;;
53036;SDS011;38924;52.134;4.666;2023-04-24T03:02:57;8.68;;;5.25;;
53036;SDS011;38924;52.134;4.666;2023-04-24T03:05:22;10.13;;;4.43;;
53036;SDS011;38924;52.134;4.666;2023-04-24T03:07:48;5.13;;;4.65;;
53036;SDS011;38924;52.134;4.666;2023-04-24T03:10:14;4.25;;;3.83;;
53036;SDS011;38924;52.134;4.666;2023-04-24T03:12:40;4.88;;;4.25;;
53036;SDS011;38924;52.134;4.666;2023-04-24T03:15:06;6.47;;;4.30;;
53036;SDS011;38924;52.134;4.666;2023-04-24T03:17:34;4.07;;;3.67;;
53036;SDS011;38924;52.134;4.666;2023-04-24T03:20:01;5.00;;;4.00;;
53036;SDS011;38924;52.134;4.666;2023-04-24T03:22:26;8.65;;;4.63;;
53036;SDS011;38924;52.134;4.666;2023-04-24T03:24:52;6.25;;;4.47;;
53036;SDS011;38924;52.134;4.666;2023-04-24T03:27:18;7.00;;;5.00;;
53036;SDS011;38924;52.134;4.666;2023-04-24T03:29:56;6.38;;;4.40;;
53036;SDS011;38924;52.134;4.666;2023-04-24T03:32:26;4.88;;;4.00;;
53036;SDS011;38924;52.134;4.666;2023-04-24T03:34:51;4.68;;;4.22;;
53036;SDS011;38924;52.134;4.666;2023-04-24T03:37:17;4.78;;;3.45;;
53036;SDS011;38924;52.134;4.666;2023-04-24T03:39:49;5.53;;;3.40;;
53036;SDS011;38924;52.134;4.666;2023-04-24T03:42:18;3.47;;;3.08;;
53036;SDS011;38924;52.134;4.666;2023-04-24T03:44:51;3.00;;;2.80;;
53036;SDS011;38924;52.134;4.666;2023-04-24T03:47:18;2.50;;;2.30;;
53036;SDS011;38924;52.134;4.666;2023-04-24T03:49:45;3.97;;;2.60;;
53036;SDS011;38924;52.134;4.666;2023-04-24T03:52:11;4.97;;;2.30;;
53036;SDS011;38924;52.134;4.666;2023-04-24T03:54:38;6.65;;;2.83;;
53036;SDS011;38924;52.134;4.666;2023-04-24T03:57:04;5.43;;;3.05;;
53036;SDS011;38924;52.134;4.666;2023-04-24T03:59:31;4.53;;;4.05;;
53036;SDS011;38924;52.134;4.666;2023-04-24T04:02:17;4.43;;;2.92;;
53036;SDS011;38924;52.134;4.666;2023-04-24T04:04:43;6.13;;;2.72;;
53036;SDS011;38924;52.134;4.666;2023-04-24T04:07:09;6.32;;;3.53;;
53036;SDS011;38924;52.134;4.666;2023-04-24T04:09:35;4.97;;;3.38;;
53036;SDS011;38924;52.134;4.666;2023-04-24T04:12:01;3.85;;;3.05;;
53036;SDS011;38924;52.134;4.666;2023-04-24T04:14:27;4.18;;;3.00;;
53036;SDS011;38924;52.134;4.666;2023-04-24T04:16:53;5.05;;;3.45;;
53036;SDS011;38924;52.134;4.666;2023-04-24T04:19:19;4.10;;;3.53;;
53036;SDS011;38924;52.134;4.666;2023-04-24T04:21:45;6.20;;;3.55;;
53036;SDS011;38924;52.134;4.666;2023-04-24T04:24:19;4.60;;;3.33;;
53036;SDS011;38924;52.134;4.666;2023-04-24T04:26:50;3.28;;;2.72;;
53036;SDS011;38924;52.134;4.666;2023-04-24T04:29:24;4.35;;;2.05;;
53036;SDS011;38924;52.134;4.666;2023-04-24T04:31:50;2.25;;;2.10;;
53036;SDS011;38924;52.134;4.666;2023-04-24T04:34:16;3.15;;;1.83;;
53036;SDS011;38924;52.134;4.666;2023-04-24T04:36:41;1.80;;;1.65;;
53036;SDS011;38924;52.134;4.666;2023-04-24T04:39:26;2.42;;;2.05;;
53036;SDS011;38924;52.134;4.666;2023-04-24T04:41:58;3.47;;;2.22;;
53036;SDS011;38924;52.134;4.666;2023-04-24T04:44:29;5.18;;;2.15;;
53036;SDS011;38924;52.134;4.666;2023-04-24T04:46:56;1.95;;;1.70;;
53036;SDS011;38924;52.134;4.666;2023-04-24T04:49:29;4.05;;;2.08;;
53036;SDS011;38924;52.134;4.666;2023-04-24T04:51:56;3.67;;;2.45;;
53036;SDS011;38924;52.134;4.666;2023-04-24T04:54:24;2.90;;;2.10;;
53036;SDS011;38924;52.134;4.666;2023-04-24T04:56:50;4.10;;;2.72;;
53036;SDS011;38924;52.134;4.666;2023-04-24T04:59:16;6.82;;;3.45;;
53036;SDS011;38924;52.134;4.666;2023-04-24T05:01:41;8.02;;;4.00;;
53036;SDS011;38924;52.134;4.666;2023-04-24T05:04:12;6.47;;;4.03;;
53036;SDS011;38924;52.134;4.666;2023-04-24T05:06:41;16.73;;;6.88;;
53036;SDS011;38924;52.134;4.666;2023-04-24T05:09:08;12.75;;;7.63;;
53036;SDS011;38924;52.134;4.666;2023-04-24T05:11:41;12.18;;;6.93;;
53036;SDS011;38924;52.134;4.666;2023-04-24T05:14:10;14.25;;;7.82;;
53036;SDS011;38924;52.134;4.666;2023-04-24T05:16:39;12.27;;;6.45;;
53036;SDS011;38924;52.134;4.666;2023-04-24T05:19:06;13.75;;;6.80;;
53036;SDS011;38924;52.134;4.666;2023-04-24T05:21:38;14.93;;;7.63;;
53036;SDS011;38924;52.134;4.666;2023-04-24T05:24:05;11.65;;;7.60;;
53036;SDS011;38924;52.134;4.666;2023-04-24T05:26:49;16.83;;;8.95;;
53036;SDS011;38924;52.134;4.666;2023-04-24T05:29:19;30.40;;;14.52;;
53036;SDS011;38924;52.134;4.666;2023-04-24T05:31:44;31.13;;;15.82;;
53036;SDS011;38924;52.134;4.666;2023-04-24T05:34:10;37.40;;;17.90;;
53036;SDS011;38924;52.134;4.666;2023-04-24T05:36:40;35.83;;;17.67;;
53036;SDS011;38924;52.134;4.666;2023-04-24T05:39:05;25.13;;;16.83;;
53036;SDS011;38924;52.134;4.666;2023-04-24T05:41:32;29.17;;;16.83;;
53036;SDS011;38924;52.134;4.666;2023-04-24T05:43:57;38.38;;;19.25;;
53036;SDS011;38924;52.134;4.666;2023-04-24T05:46:23;32.95;;;18.30;;
53036;SDS011;38924;52.134;4.666;2023-04-24T05:48:49;29.30;;;16.90;;
53036;SDS011;38924;52.134;4.666;2023-04-24T05:51:14;27.33;;;14.15;;
53036;SDS011;38924;52.134;4.666;2023-04-24T05:53:40;31.50;;;15.10;;
53036;SDS011;38924;52.134;4.666;2023-04-24T05:56:06;34.30;;;15.55;;
53036;SDS011;38924;52.134;4.666;2023-04-24T05:58:32;35.67;;;13.20;;
53036;SDS011;38924;52.134;4.666;2023-04-24T06:00:58;39.72;;;15.70;;
53036;SDS011;38924;52.134;4.666;2023-04-24T06:03:26;29.23;;;13.77;;
53036;SDS011;38924;52.134;4.666;2023-04-24T06:05:52;32.78;;;14.18;;
53036;SDS011;38924;52.134;4.666;2023-04-24T06:08:20;33.70;;;13.88;;
53036;SDS011;38924;52.134;4.666;2023-04-24T06:10:47;31.55;;;13.82;;
53036;SDS011;38924;52.134;4.666;2023-04-24T06:13:12;35.33;;;14.77;;
53036;SDS011;38924;52.134;4.666;2023-04-24T06:15:43;31.85;;;14.23;;
53036;SDS011;38924;52.134;4.666;2023-04-24T06:18:15;31.58;;;12.85;;
53036;SDS011;38924;52.134;4.666;2023-04-24T06:20:41;32.55;;;13.38;;
53036;SDS011;38924;52.134;4.666;2023-04-24T06:23:08;44.88;;;13.30;;
53036;SDS011;38924;52.134;4.666;2023-04-24T06:25:35;38.63;;;10.27;;
53036;SDS011;38924;52.134;4.666;2023-04-24T06:28:01;38.90;;;11.13;;
53036;SDS011;38924;52.134;4.666;2023-04-24T06:30:29;31.15;;;9.60;;
53036;SDS011;38924;52.134;4.666;2023-04-24T06:32:54;33.28;;;8.85;;
53036;SDS011;38924;52.134;4.666;2023-04-24T06:35:23;41.03;;;9.23;;
53036;SDS011;38924;52.134;4.666;2023-04-24T06:37:49;35.67;;;9.02;;
53036;SDS011;38924;52.134;4.666;2023-04-24T06:40:14;43.28;;;8.32;;
53036;SDS011;38924;52.134;4.666;2023-04-24T06:42:40;29.85;;;8.63;;
53036;SDS011;38924;52.134;4.666;2023-04-24T06:45:08;35.92;;;7.95;;
53036;SDS011;38924;52.134;4.666;2023-04-24T06:47:33;29.13;;;8.70;;
53036;SDS011;38924;52.134;4.666;2023-04-24T06:49:59;25.75;;;7.13;;
53036;SDS011;38924;52.134;4.666;2023-04-24T06:52:25;37.17;;;8.15;;
53036;SDS011;38924;52.134;4.666;2023-04-24T06:54:51;30.00;;;7.05;;
53036;SDS011;38924;52.134;4.666;2023-04-24T06:57:19;37.90;;;7.25;;
53036;SDS011;38924;52.134;4.666;2023-04-24T06:59:45;34.78;;;7.88;;
53036;SDS011;38924;52.134;4.666;2023-04-24T07:02:10;40.97;;;8.40;;
53036;SDS011;38924;52.134;4.666;2023-04-24T07:04:36;48.45;;;8.88;;
53036;SDS011;38924;52.134;4.666;2023-04-24T07:07:02;28.33;;;6.88;;
53036;SDS011;38924;52.134;4.666;2023-04-24T07:09:27;39.03;;;7.60;;
53036;SDS011;38924;52.134;4.666;2023-04-24T07:11:54;38.00;;;6.85;;
53036;SDS011;38924;52.134;4.666;2023-04-24T07:14:20;27.75;;;8.23;;
53036;SDS011;38924;52.134;4.666;2023-04-24T07:16:46;43.35;;;7.57;;
53036;SDS011;38924;52.134;4.666;2023-04-24T07:19:12;39.22;;;5.72;;
53036;SDS011;38924;52.134;4.666;2023-04-24T07:21:38;34.05;;;6.30;;
53036;SDS011;38924;52.134;4.666;2023-04-24T07:24:06;27.80;;;6.43;;
53036;SDS011;38924;52.134;4.666;2023-04-24T07:26:36;34.85;;;5.78;;
53036;SDS011;38924;52.134;4.666;2023-04-24T07:29:02;26.88;;;5.88;;
53036;SDS011;38924;52.134;4.666;2023-04-24T07:31:27;22.48;;;5.50;;
53036;SDS011;38924;52.134;4.666;2023-04-24T07:33:53;34.05;;;5.68;;
53036;SDS011;38924;52.134;4.666;2023-04-24T07:36:22;19.98;;;4.93;;
53036;SDS011;38924;52.134;4.666;2023-04-24T07:38:49;29.88;;;7.65;;
53036;SDS011;38924;52.134;4.666;2023-04-24T07:41:15;17.10;;;4.68;;
53036;SDS011;38924;52.134;4.666;2023-04-24T07:43:41;31.00;;;6.03;;
53036;SDS011;38924;52.134;4.666;2023-04-24T07:46:07;39.85;;;6.65;;
53036;SDS011;38924;52.134;4.666;2023-04-24T07:48:33;14.55;;;3.55;;
53036;SDS011;38924;52.134;4.666;2023-04-24T07:50:58;29.15;;;5.25;;
53036;SDS011;38924;52.134;4.666;2023-04-24T07:53:24;27.13;;;6.05;;
53036;SDS011;38924;52.134;4.666;2023-04-24T07:55:50;21.30;;;5.07;;
53036;SDS011;38924;52.134;4.666;2023-04-24T07:58:15;15.35;;;4.05;;
53036;SDS011;38924;52.134;4.666;2023-04-24T08:00:41;21.55;;;4.95;;
53036;SDS011;38924;52.134;4.666;2023-04-24T08:03:07;24.92;;;5.07;;
53036;SDS011;38924;52.134;4.666;2023-04-24T08:05:32;25.45;;;6.90;;
53036;SDS011;38924;52.134;4.666;2023-04-24T08:07:58;20.23;;;4.35;;
53036;SDS011;38924;52.134;4.666;2023-04-24T08:10:24;52.88;;;7.28;;
53036;SDS011;38924;52.134;4.666;2023-04-24T08:12:50;19.50;;;3.83;;
53036;SDS011;38924;52.134;4.666;2023-04-24T08:15:16;19.60;;;3.90;;
53036;SDS011;38924;52.134;4.666;2023-04-24T08:17:41;21.25;;;4.72;;
53036;SDS011;38924;52.134;4.666;2023-04-24T08:20:08;20.65;;;4.47;;
53036;SDS011;38924;52.134;4.666;2023-04-24T08:22:39;18.10;;;4.47;;
53036;SDS011;38924;52.134;4.666;2023-04-24T08:25:05;16.75;;;3.20;;
53036;SDS011;38924;52.134;4.666;2023-04-24T08:27:31;28.95;;;3.83;;
53036;SDS011;38924;52.134;4.666;2023-04-24T08:29:57;15.60;;;3.55;;
53036;SDS011;38924;52.134;4.666;2023-04-24T08:32:22;11.88;;;2.92;;
53036;SDS011;38924;52.134;4.666;2023-04-24T08:34:48;10.05;;;3.22;;
53036;SDS011;38924;52.134;4.666;2023-04-24T08:37:14;20.50;;;3.33;;
53036;SDS011;38924;52.134;4.666;2023-04-24T08:39:39;20.15;;;3.50;;
53036;SDS011;38924;52.134;4.666;2023-04-24T08:42:05;13.63;;;3.17;;
53036;SDS011;38924;52.134;4.666;2023-04-24T08:44:33;14.73;;;3.25;;
53036;SDS011;38924;52.134;4.666;2023-04-24T08:47:00;12.68;;;3.08;;
53036;SDS011;38924;52.134;4.666;2023-04-24T08:49:25;11.38;;;3.97;;
53036;SDS011;38924;52.134;4.666;2023-04-24T08:51:55;20.95;;;3.35;;
53036;SDS011;38924;52.134;4.666;2023-04-24T08:54:21;9.93;;;2.80;;
53036;SDS011;38924;52.134;4.666;2023-04-24T08:56:47;11.63;;;3.50;;
53036;SDS011;38924;52.134;4.666;2023-04-24T08:59:14;9.82;;;2.67;;
53036;SDS011;38924;52.134;4.666;2023-04-24T09:01:40;13.10;;;3.28;;
53036;SDS011;38924;52.134;4.666;2023-04-24T09:04:06;15.70;;;3.35;;
53036;SDS011;38924;52.134;4.666;2023-04-24T09:06:32;11.43;;;2.78;;
53036;SDS011;38924;52.134;4.666;2023-04-24T09:09:00;17.55;;;3.45;;
53036;SDS011;38924;52.134;4.666;2023-04-24T09:11:31;9.45;;;2.40;;
53036;SDS011;38924;52.134;4.666;2023-04-24T09:13:58;13.30;;;2.60;;
53036;SDS011;38924;52.134;4.666;2023-04-24T09:16:25;10.30;;;2.58;;
53036;SDS011;38924;52.134;4.666;2023-04-24T09:18:51;13.30;;;2.60;;
53036;SDS011;38924;52.134;4.666;2023-04-24T09:21:17;7.22;;;2.67;;
53036;SDS011;38924;52.134;4.666;2023-04-24T09:23:45;11.43;;;1.98;;
53036;SDS011;38924;52.134;4.666;2023-04-24T09:26:11;11.27;;;2.00;;
53036;SDS011;38924;52.134;4.666;2023-04-24T09:28:37;9.02;;;2.13;;
53036;SDS011;38924;52.134;4.666;2023-04-24T09:31:04;8.55;;;2.22;;
53036;SDS011;38924;52.134;4.666;2023-04-24T09:33:30;14.20;;;2.20;;
53036;SDS011;38924;52.134;4.666;2023-04-24T09:35:56;5.45;;;1.45;;
53036;SDS011;38924;52.134;4.666;2023-04-24T09:38:30;4.38;;;2.22;;
53036;SDS011;38924;52.134;4.666;2023-04-24T09:40:58;17.08;;;1.88;;
53036;SDS011;38924;52.134;4.666;2023-04-24T09:43:24;9.75;;;2.53;;
53036;SDS011;38924;52.134;4.666;2023-04-24T09:45:51;10.00;;;2.20;;
53036;SDS011;38924;52.134;4.666;2023-04-24T09:48:20;4.75;;;1.60;;
53036;SDS011;38924;52.134;4.666;2023-04-24T09:50:54;3.72;;;1.65;;
53036;SDS011;38924;52.134;4.666;2023-04-24T09:53:23;11.55;;;1.70;;
53036;SDS011;38924;52.134;4.666;2023-04-24T09:55:49;4.72;;;1.70;;
53036;SDS011;38924;52.134;4.666;2023-04-24T09:58:15;14.50;;;2.35;;
53036;SDS011;38924;52.134;4.666;2023-04-24T10:00:41;16.98;;;1.92;;
53036;SDS011;38924;52.134;4.666;2023-04-24T10:03:07;10.73;;;2.17;;
53036;SDS011;38924;52.134;4.666;2023-04-24T10:05:34;10.15;;;1.90;;
53036;SDS011;38924;52.134;4.666;2023-04-24T10:08:04;5.80;;;2.08;;
53036;SDS011;38924;52.134;4.666;2023-04-24T10:10:34;13.45;;;3.45;;
53036;SDS011;38924;52.134;4.666;2023-04-24T10:13:00;8.07;;;2.15;;
53036;SDS011;38924;52.134;4.666;2023-04-24T10:15:26;6.10;;;2.08;;
53036;SDS011;38924;52.134;4.666;2023-04-24T10:18:07;3.67;;;1.65;;
53036;SDS011;38924;52.134;4.666;2023-04-24T10:20:34;7.50;;;2.15;;
53036;SDS011;38924;52.134;4.666;2023-04-24T10:23:00;10.40;;;2.22;;
53036;SDS011;38924;52.134;4.666;2023-04-24T10:25:30;4.05;;;1.48;;
53036;SDS011;38924;52.134;4.666;2023-04-24T10:27:56;8.38;;;1.67;;
53036;SDS011;38924;52.134;4.666;2023-04-24T10:30:28;8.10;;;1.92;;
53036;SDS011;38924;52.134;4.666;2023-04-24T10:32:54;8.20;;;2.65;;
53036;SDS011;38924;52.134;4.666;2023-04-24T10:35:20;5.35;;;1.85;;
53036;SDS011;38924;52.134;4.666;2023-04-24T10:38:07;6.40;;;1.60;;
53036;SDS011;38924;52.134;4.666;2023-04-24T10:40:34;12.38;;;1.80;;
53036;SDS011;38924;52.134;4.666;2023-04-24T10:43:06;8.52;;;2.13;;
53036;SDS011;38924;52.134;4.666;2023-04-24T10:45:35;10.35;;;2.28;;
53036;SDS011;38924;52.134;4.666;2023-04-24T10:48:01;5.70;;;1.58;;
53036;SDS011;38924;52.134;4.666;2023-04-24T10:50:27;9.23;;;2.33;;
53036;SDS011;38924;52.134;4.666;2023-04-24T10:53:04;10.93;;;2.53;;
53036;SDS011;38924;52.134;4.666;2023-04-24T10:55:40;12.95;;;2.72;;
53036;SDS011;38924;52.134;4.666;2023-04-24T10:58:06;10.85;;;2.10;;
53036;SDS011;38924;52.134;4.666;2023-04-24T11:00:33;11.48;;;2.58;;
53036;SDS011;38924;52.134;4.666;2023-04-24T11:03:01;10.95;;;2.25;;
53036;SDS011;38924;52.134;4.666;2023-04-24T11:08:32;13.60;;;2.55;;
53036;SDS011;38924;52.134;4.666;2023-04-24T11:11:02;10.23;;;1.98;;
53036;SDS011;38924;52.134;4.666;2023-04-24T11:16:35;7.78;;;2.55;;
53036;SDS011;38924;52.134;4.666;2023-04-24T11:19:06;10.98;;;2.33;;
53036;SDS011;38924;52.134;4.666;2023-04-24T11:21:38;10.52;;;2.05;;
53036;SDS011;38924;52.134;4.666;2023-04-24T11:32:14;9.60;;;2.33;;
53036;SDS011;38924;52.134;4.666;2023-04-24T11:34:40;7.47;;;2.88;;
53036;SDS011;38924;52.134;4.666;2023-04-24T11:37:05;9.15;;;2.67;;
53036;SDS011;38924;52.134;4.666;2023-04-24T11:39:36;10.52;;;2.67;;
53036;SDS011;38924;52.134;4.666;2023-04-24T11:42:02;19.95;;;3.05;;
53036;SDS011;38924;52.134;4.666;2023-04-24T11:44:28;9.57;;;2.90;;
53036;SDS011;38924;52.134;4.666;2023-04-24T11:46:55;14.43;;;3.60;;
53036;SDS011;38924;52.134;4.666;2023-04-24T11:49:21;11.13;;;3.25;;
53036;SDS011;38924;52.134;4.666;2023-04-24T11:51:48;18.08;;;3.65;;
53036;SDS011;38924;52.134;4.666;2023-04-24T11:54:13;14.63;;;2.95;;
53036;SDS011;38924;52.134;4.666;2023-04-24T11:56:39;14.48;;;3.00;;
53036;SDS011;38924;52.134;4.666;2023-04-24T11:59:09;11.05;;;3.20;;
53036;SDS011;38924;52.134;4.666;2023-04-24T12:01:45;15.68;;;4.38;;
53036;SDS011;38924;52.134;4.666;2023-04-24T12:04:11;10.13;;;2.85;;
53036;SDS011;38924;52.134;4.666;2023-04-24T12:06:37;25.85;;;3.72;;
53036;SDS011;38924;52.134;4.666;2023-04-24T12:09:02;17.60;;;4.45;;
53036;SDS011;38924;52.134;4.666;2023-04-24T12:11:28;15.60;;;3.05;;
53036;SDS011;38924;52.134;4.666;2023-04-24T12:13:54;14.93;;;3.97;;
53036;SDS011;38924;52.134;4.666;2023-04-24T12:16:19;17.48;;;4.38;;
53036;SDS011;38924;52.134;4.666;2023-04-24T12:18:45;18.95;;;4.22;;
53036;SDS011;38924;52.134;4.666;2023-04-24T12:21:21;20.13;;;4.07;;
53036;SDS011;38924;52.134;4.666;2023-04-24T12:23:47;24.30;;;6.45;;
53036;SDS011;38924;52.134;4.666;2023-04-24T12:26:16;21.60;;;4.10;;
53036;SDS011;38924;52.134;4.666;2023-04-24T12:28:45;24.13;;;3.92;;
53036;SDS011;38924;52.134;4.666;2023-04-24T12:31:11;17.88;;;4.80;;
53036;SDS011;38924;52.134;4.666;2023-04-24T12:33:37;14.07;;;3.58;;
53036;SDS011;38924;52.134;4.666;2023-04-24T12:36:03;18.95;;;4.20;;
53036;SDS011;38924;52.134;4.666;2023-04-24T12:38:30;14.05;;;4.55;;
53036;SDS011;38924;52.134;4.666;2023-04-24T12:41:06;22.33;;;5.22;;
53036;SDS011;38924;52.134;4.666;2023-04-24T12:43:32;28.63;;;3.97;;
53036;SDS011;38924;52.134;4.666;2023-04-24T12:45:57;12.65;;;3.15;;
53036;SDS011;38924;52.134;4.666;2023-04-24T12:48:27;18.08;;;4.20;;
53036;SDS011;38924;52.134;4.666;2023-04-24T12:50:53;16.17;;;4.50;;
53036;SDS011;38924;52.134;4.666;2023-04-24T12:53:20;20.33;;;4.20;;
53036;SDS011;38924;52.134;4.666;2023-04-24T12:55:45;12.43;;;3.58;;
53036;SDS011;38924;52.134;4.666;2023-04-24T12:58:18;11.52;;;3.47;;
53036;SDS011;38924;52.134;4.666;2023-04-24T13:00:44;15.80;;;4.13;;
53036;SDS011;38924;52.134;4.666;2023-04-24T13:03:11;9.90;;;3.53;;
53036;SDS011;38924;52.134;4.666;2023-04-24T13:05:36;13.48;;;3.53;;
53036;SDS011;38924;52.134;4.666;2023-04-24T13:08:02;19.08;;;4.18;;
53036;SDS011;38924;52.134;4.666;2023-04-24T13:10:28;14.93;;;3.83;;
53036;SDS011;38924;52.134;4.666;2023-04-24T13:12:53;11.32;;;3.85;;
53036;SDS011;38924;52.134;4.666;2023-04-24T13:15:19;15.55;;;3.75;;
53036;SDS011;38924;52.134;4.666;2023-04-24T13:17:45;13.25;;;4.30;;
53036;SDS011;38924;52.134;4.666;2023-04-24T13:20:11;19.23;;;4.10;;
53036;SDS011;38924;52.134;4.666;2023-04-24T13:22:36;15.02;;;5.30;;
53036;SDS011;38924;52.134;4.666;2023-04-24T13:25:02;15.68;;;4.57;;
53036;SDS011;38924;52.134;4.666;2023-04-24T13:27:38;23.48;;;5.43;;
53036;SDS011;38924;52.134;4.666;2023-04-24T13:30:03;14.10;;;4.18;;
53036;SDS011;38924;52.134;4.666;2023-04-24T13:32:29;14.60;;;4.07;;
53036;SDS011;38924;52.134;4.666;2023-04-24T13:34:56;7.65;;;3.22;;
53036;SDS011;38924;52.134;4.666;2023-04-24T13:37:21;15.52;;;4.10;;
53036;SDS011;38924;52.134;4.666;2023-04-24T13:39:48;14.20;;;3.65;;
53036;SDS011;38924;52.134;4.666;2023-04-24T13:42:13;17.58;;;5.00;;
53036;SDS011;38924;52.134;4.666;2023-04-24T13:44:39;20.23;;;5.15;;
53036;SDS011;38924;52.134;4.666;2023-04-24T13:47:05;23.73;;;6.28;;
53036;SDS011;38924;52.134;4.666;2023-04-24T13:49:31;18.38;;;4.93;;
53036;SDS011;38924;52.134;4.666;2023-04-24T13:51:57;16.85;;;4.20;;
53036;SDS011;38924;52.134;4.666;2023-04-24T13:54:22;24.45;;;6.97;;
53036;SDS011;38924;52.134;4.666;2023-04-24T13:56:51;21.83;;;5.05;;
53036;SDS011;38924;52.134;4.666;2023-04-24T13:59:17;15.90;;;4.45;;
53036;SDS011;38924;52.134;4.666;2023-04-24T14:01:44;26.88;;;5.32;;
53036;SDS011;38924;52.134;4.666;2023-04-24T14:04:10;21.92;;;6.57;;
53036;SDS011;38924;52.134;4.666;2023-04-24T14:06:36;16.90;;;4.10;;
53036;SDS011;38924;52.134;4.666;2023-04-24T14:09:02;19.90;;;4.15;;
53036;SDS011;38924;52.134;4.666;2023-04-24T14:11:30;18.90;;;5.63;;
53036;SDS011;38924;52.134;4.666;2023-04-24T14:13:56;16.52;;;4.22;;
53036;SDS011;38924;52.134;4.666;2023-04-24T14:16:22;17.23;;;4.13;;
53036;SDS011;38924;52.134;4.666;2023-04-24T14:18:47;19.75;;;5.50;;
53036;SDS011;38924;52.134;4.666;2023-04-24T14:21:13;21.27;;;4.53;;
53036;SDS011;38924;52.134;4.666;2023-04-24T14:23:39;20.80;;;5.18;;
53036;SDS011;38924;52.134;4.666;2023-04-24T14:26:04;21.05;;;5.10;;
53036;SDS011;38924;52.134;4.666;2023-04-24T14:28:30;18.35;;;4.22;;
53036;SDS011;38924;52.134;4.666;2023-04-24T14:30:56;20.85;;;4.32;;
53036;SDS011;38924;52.134;4.666;2023-04-24T14:33:21;34.67;;;5.88;;
53036;SDS011;38924;52.134;4.666;2023-04-24T14:35:47;16.52;;;4.22;;
53036;SDS011;38924;52.134;4.666;2023-04-24T14:38:13;23.65;;;6.32;;
53036;SDS011;38924;52.134;4.666;2023-04-24T14:40:39;24.92;;;4.78;;
53036;SDS011;38924;52.134;4.666;2023-04-24T14:43:05;17.67;;;4.43;;
53036;SDS011;38924;52.134;4.666;2023-04-24T14:45:32;23.00;;;5.65;;
53036;SDS011;38924;52.134;4.666;2023-04-24T14:47:57;24.17;;;6.35;;
53036;SDS011;38924;52.134;4.666;2023-04-24T14:50:26;19.10;;;5.13;;
53036;SDS011;38924;52.134;4.666;2023-04-24T14:52:54;19.13;;;5.57;;